Terminal Aerodrome Forecast
Issued by NWS

Home | Current Version | Previous Version | Text Only | Print | Product List | Glossary On
Versions: 1 2 3 4 5 6 7 8 9 10 11
000
FTUS46 KLOX 171735
TAFBUR
TAF
KBUR 171735Z 1718/1818 VRB03KT P6SM SKC
     FM172100 17008KT P6SM SKC
     FM180300 VRB03KT P6SM SKC
     FM180900 VRB03KT 1SM BR OVC003
     FM181500 VRB03KT 2SM BR OVC008
     FM181700 VRB03KT 6SM BR SCT015=

USA.gov is the U.S. government's official web portal to all federal, state and local government web resources and services.